createdAt,value
2022-11-26T00:00:46.925Z,2.00
2022-11-26T00:03:15.712Z,2.83
2022-11-26T00:05:44.588Z,2.88
2022-11-26T00:08:18.137Z,2.30
2022-11-26T00:10:46.718Z,2.97
2022-11-26T00:13:21.339Z,2.50
2022-11-26T00:15:50.107Z,2.15
2022-11-26T00:18:18.689Z,2.50
2022-11-26T00:20:48.068Z,2.67
2022-11-26T00:23:19.511Z,2.55
2022-11-26T00:25:49.417Z,3.00
2022-11-26T00:28:25.954Z,2.28
2022-11-26T00:30:56.092Z,2.03
2022-11-26T00:33:24.856Z,2.90
2022-11-26T00:35:55.705Z,2.28
2022-11-26T00:38:24.400Z,2.58
2022-11-26T00:40:52.852Z,2.95
2022-11-26T00:43:21.156Z,2.72
2022-11-26T00:45:51.174Z,2.70
2022-11-26T00:48:20.100Z,2.88
2022-11-26T00:50:49.562Z,2.75
2022-11-26T00:53:19.547Z,2.40
2022-11-26T00:55:48.959Z,2.40
2022-11-26T00:58:22.477Z,2.90
2022-11-26T01:00:52.725Z,2.90
2022-11-26T01:03:21.174Z,2.75
2022-11-26T01:05:50.738Z,2.75
2022-11-26T01:08:25.827Z,3.45
2022-11-26T01:10:54.175Z,3.00
2022-11-26T01:13:22.528Z,2.72
2022-11-26T01:15:52.054Z,2.65
2022-11-26T01:18:22.222Z,3.92
2022-11-26T01:20:50.739Z,3.10
2022-11-26T01:23:20.346Z,2.70
2022-11-26T01:25:49.163Z,3.42
2022-11-26T01:28:18.848Z,3.17
2022-11-26T01:30:47.708Z,3.13
2022-11-26T01:33:17.368Z,2.97
2022-11-26T01:35:48.796Z,3.00
2022-11-26T01:38:17.902Z,3.35
2022-11-26T01:40:57.031Z,3.25
2022-11-26T01:43:28.312Z,3.67
2022-11-26T01:45:57.078Z,3.58
2022-11-26T01:48:31.352Z,3.72
2022-11-26T01:51:04.237Z,3.88
2022-11-26T01:53:47.926Z,3.88
2022-11-26T01:56:19.239Z,3.25
2022-11-26T01:58:51.777Z,3.80
2022-11-26T02:01:23.312Z,3.83
2022-11-26T02:03:56.828Z,3.25
2022-11-26T02:06:27.526Z,3.35
2022-11-26T02:08:56.397Z,3.45
2022-11-26T02:11:25.565Z,3.70
2022-11-26T02:13:58.855Z,3.58
2022-11-26T02:16:37.331Z,3.53
2022-11-26T02:19:15.510Z,4.32
2022-11-26T02:21:48.049Z,3.40
2022-11-26T02:24:26.994Z,4.68
2022-11-26T02:27:03.722Z,4.10
2022-11-26T02:29:47.052Z,3.47
2022-11-26T02:32:19.639Z,4.68
2022-11-26T02:34:50.626Z,3.83
2022-11-26T02:37:24.451Z,4.78
2022-11-26T02:39:55.363Z,3.40
2022-11-26T02:42:27.635Z,4.07
2022-11-26T02:44:58.726Z,3.92
2022-11-26T02:47:28.465Z,3.55
2022-11-26T02:49:57.482Z,4.25
2022-11-26T02:52:26.576Z,3.92
2022-11-26T02:54:57.052Z,4.38
2022-11-26T02:57:27.143Z,4.68
2022-11-26T02:59:59.126Z,5.35
2022-11-26T03:02:29.906Z,3.88
2022-11-26T03:05:04.075Z,3.97
2022-11-26T03:07:33.621Z,3.85
2022-11-26T03:10:03.027Z,3.72
2022-11-26T03:12:31.504Z,4.78
2022-11-26T03:15:01.090Z,4.07
2022-11-26T03:17:33.856Z,4.47
2022-11-26T03:20:03.549Z,4.45
2022-11-26T03:22:31.780Z,5.03
2022-11-26T03:25:00.235Z,4.05
2022-11-26T03:27:31.094Z,4.07
2022-11-26T03:30:00.767Z,4.38
2022-11-26T03:32:29.043Z,3.97
2022-11-26T03:34:57.360Z,4.28
2022-11-26T03:37:25.683Z,4.05
2022-11-26T03:39:53.902Z,4.40
2022-11-26T03:42:22.110Z,4.75
2022-11-26T03:44:50.344Z,4.50
2022-11-26T03:47:22.037Z,4.50
2022-11-26T03:49:52.652Z,5.57
2022-11-26T03:52:20.939Z,4.45
2022-11-26T03:54:49.197Z,4.93
2022-11-26T03:57:18.036Z,4.60
2022-11-26T03:59:46.249Z,5.05
2022-11-26T04:02:14.648Z,5.50
2022-11-26T04:04:44.246Z,3.75
2022-11-26T04:07:12.656Z,5.07
2022-11-26T04:09:40.904Z,4.68
2022-11-26T04:12:09.187Z,5.60
2022-11-26T04:14:41.962Z,5.40
2022-11-26T04:17:10.719Z,5.90
2022-11-26T04:19:41.269Z,4.72
2022-11-26T04:22:10.884Z,6.00
2022-11-26T04:24:39.545Z,5.65
2022-11-26T04:27:10.239Z,6.60
2022-11-26T04:29:38.617Z,6.28
2022-11-26T04:32:07.279Z,7.15
2022-11-26T04:34:35.836Z,6.07
2022-11-26T04:37:04.255Z,5.63
2022-11-26T04:39:34.086Z,5.55
2022-11-26T04:42:04.608Z,5.60
2022-11-26T04:44:46.714Z,5.28
2022-11-26T04:47:15.149Z,5.35
2022-11-26T04:49:43.375Z,5.72
2022-11-26T04:52:11.816Z,4.97
2022-11-26T04:54:50.462Z,5.53
2022-11-26T04:57:21.137Z,5.05
2022-11-26T04:59:49.852Z,6.68
2022-11-26T05:02:18.287Z,6.03
2022-11-26T05:04:46.811Z,5.60
2022-11-26T05:07:15.099Z,5.85
2022-11-26T05:09:44.674Z,5.40
2022-11-26T05:12:13.189Z,5.65
2022-11-26T05:14:44.024Z,5.10
2022-11-26T05:17:12.233Z,5.15
2022-11-26T05:19:40.469Z,4.63
2022-11-26T05:22:08.729Z,4.95
2022-11-26T05:24:42.025Z,6.20
2022-11-26T05:27:16.203Z,5.85
2022-11-26T05:29:44.750Z,6.65
2022-11-26T05:32:17.916Z,6.18
2022-11-26T05:34:46.185Z,5.18
2022-11-26T05:37:14.577Z,6.07
2022-11-26T05:39:44.938Z,6.43
2022-11-26T05:42:21.348Z,6.47
2022-11-26T05:44:49.883Z,6.00
2022-11-26T05:47:20.228Z,6.07
2022-11-26T05:49:50.898Z,5.63
2022-11-26T05:52:19.238Z,6.47
2022-11-26T05:54:48.053Z,6.53
2022-11-26T05:57:20.119Z,5.45
2022-11-26T05:59:49.085Z,7.03
2022-11-26T06:02:17.399Z,5.88
2022-11-26T06:04:46.497Z,6.00
2022-11-26T06:07:17.970Z,6.78
2022-11-26T06:09:46.221Z,6.72
2022-11-26T06:12:14.791Z,5.10
2022-11-26T06:14:47.076Z,6.47
2022-11-26T06:17:15.504Z,6.40
2022-11-26T06:19:46.010Z,6.80
2022-11-26T06:22:17.628Z,7.50
2022-11-26T06:24:53.973Z,7.20
2022-11-26T06:27:22.372Z,7.32
2022-11-26T06:29:54.507Z,7.05
2022-11-26T06:32:25.400Z,6.43
2022-11-26T06:35:02.253Z,6.30
2022-11-26T06:37:30.852Z,6.78
2022-11-26T06:39:59.073Z,6.60
2022-11-26T06:42:29.906Z,6.97
2022-11-26T06:45:00.229Z,6.65
2022-11-26T06:47:31.562Z,6.25
2022-11-26T06:50:09.359Z,6.68
2022-11-26T06:52:39.111Z,6.13
2022-11-26T06:55:11.067Z,6.90
2022-11-26T06:57:41.664Z,6.63
2022-11-26T07:00:14.463Z,6.97
2022-11-26T07:02:45.191Z,6.60
2022-11-26T07:05:15.796Z,5.80
2022-11-26T07:07:44.173Z,6.45
2022-11-26T07:10:20.296Z,6.35
2022-11-26T07:12:48.962Z,6.70
2022-11-26T07:15:18.964Z,7.03
2022-11-26T07:17:47.282Z,6.05
2022-11-26T07:20:18.101Z,6.70
2022-11-26T07:22:46.307Z,6.78
2022-11-26T07:25:18.123Z,7.90
2022-11-26T07:27:46.849Z,5.95
2022-11-26T07:30:15.616Z,8.35
2022-11-26T07:32:49.884Z,7.70
2022-11-26T07:35:18.293Z,7.72
2022-11-26T07:37:46.848Z,7.05
2022-11-26T07:40:18.053Z,6.72
2022-11-26T07:42:53.223Z,7.05
2022-11-26T07:45:28.169Z,5.85
2022-11-26T07:47:57.862Z,7.45
2022-11-26T07:50:26.101Z,7.65
2022-11-26T07:52:54.658Z,8.25
2022-11-26T07:55:23.185Z,7.90
2022-11-26T07:57:51.680Z,7.22
2022-11-26T08:00:20.561Z,6.90
2022-11-26T08:02:55.909Z,7.35
2022-11-26T08:05:25.721Z,6.68
2022-11-26T08:07:54.179Z,7.35
2022-11-26T08:10:24.972Z,6.63
2022-11-26T08:12:53.229Z,7.70
2022-11-26T08:15:21.502Z,7.00
2022-11-26T08:18:00.156Z,6.53
2022-11-26T08:20:29.855Z,6.95
2022-11-26T08:22:58.123Z,6.95
2022-11-26T08:25:26.513Z,6.80
2022-11-26T08:27:54.881Z,6.30
2022-11-26T08:30:23.209Z,6.65
2022-11-26T08:32:51.618Z,6.55
2022-11-26T08:35:38.646Z,6.70
2022-11-26T08:38:14.225Z,8.10
2022-11-26T08:40:42.689Z,7.07
2022-11-26T08:43:15.415Z,7.50
2022-11-26T08:45:43.823Z,8.30
2022-11-26T08:48:13.347Z,7.65
2022-11-26T08:50:48.815Z,7.00
2022-11-26T08:53:18.988Z,7.03
2022-11-26T08:55:59.999Z,6.65
2022-11-26T08:58:29.163Z,6.50
2022-11-26T09:00:57.863Z,6.68
2022-11-26T09:03:26.193Z,7.03
2022-11-26T09:05:54.829Z,8.02
2022-11-26T09:08:27.797Z,7.10
2022-11-26T09:10:58.878Z,6.43
2022-11-26T09:13:27.094Z,6.95
2022-11-26T09:15:57.159Z,5.95
2022-11-26T09:18:34.680Z,5.85
2022-11-26T09:21:04.200Z,6.22
2022-11-26T09:23:33.908Z,5.78
2022-11-26T09:26:02.144Z,6.82
2022-11-26T09:28:30.538Z,6.63
2022-11-26T09:30:59.058Z,7.22
2022-11-26T09:33:27.620Z,6.90
2022-11-26T09:35:58.248Z,7.15
2022-11-26T09:38:26.625Z,6.30
2022-11-26T09:41:00.966Z,6.28
2022-11-26T09:43:31.228Z,6.70
2022-11-26T09:46:01.510Z,5.75
2022-11-26T09:48:32.023Z,6.72
2022-11-26T09:51:13.719Z,5.97
2022-11-26T09:53:43.372Z,7.13
2022-11-26T09:56:15.206Z,7.22
2022-11-26T09:58:48.243Z,7.38
2022-11-26T10:01:23.760Z,6.32
2022-11-26T10:03:52.214Z,6.47
2022-11-26T10:06:27.517Z,5.47
2022-11-26T10:09:07.017Z,6.78
2022-11-26T10:11:39.713Z,6.07
2022-11-26T10:14:13.907Z,7.25
2022-11-26T10:16:44.918Z,6.78
2022-11-26T10:19:20.263Z,7.80
2022-11-26T10:21:59.401Z,6.43
2022-11-26T10:24:34.775Z,5.82
2022-11-26T10:27:07.239Z,5.80
2022-11-26T10:29:36.861Z,6.60
2022-11-26T10:32:14.517Z,7.20
2022-11-26T10:34:44.965Z,6.10
2022-11-26T10:37:13.763Z,5.93
2022-11-26T10:39:42.001Z,7.13
2022-11-26T10:42:17.843Z,5.75
2022-11-26T10:44:46.205Z,6.07
2022-11-26T10:47:30.091Z,6.32
2022-11-26T10:50:39.586Z,6.55
2022-11-26T10:53:06.031Z,6.18
2022-11-26T10:55:38.488Z,6.28
2022-11-26T10:58:09.233Z,5.78
2022-11-26T11:00:39.042Z,6.40
2022-11-26T11:03:13.052Z,6.18
2022-11-26T11:05:42.137Z,7.13
2022-11-26T11:08:14.223Z,7.03
2022-11-26T11:10:54.274Z,6.60
2022-11-26T11:13:25.666Z,7.22
2022-11-26T11:16:01.348Z,7.40
2022-11-26T11:18:31.243Z,5.32
2022-11-26T11:21:01.005Z,6.57
2022-11-26T11:24:00.305Z,6.22
2022-11-26T11:26:21.316Z,6.28
2022-11-26T11:28:52.119Z,6.20
2022-11-26T11:31:23.903Z,5.43
2022-11-26T11:33:55.243Z,5.82
2022-11-26T11:36:28.448Z,4.85
2022-11-26T11:38:57.437Z,5.32
2022-11-26T11:41:27.598Z,6.50
2022-11-26T11:44:01.843Z,5.03
2022-11-26T11:46:39.517Z,6.10
2022-11-26T11:49:14.900Z,6.03
2022-11-26T11:51:48.285Z,6.15
2022-11-26T11:54:24.263Z,5.38
2022-11-26T11:56:56.855Z,5.28
2022-11-26T12:00:10.617Z,4.15
2022-11-26T12:02:51.734Z,4.45
2022-11-26T12:05:33.226Z,5.10
2022-11-26T12:08:07.224Z,4.60
2022-11-26T12:10:40.106Z,4.47
2022-11-26T12:13:11.534Z,4.63
2022-11-26T12:15:47.052Z,5.32
2022-11-26T12:18:22.766Z,5.20
2022-11-26T12:20:52.472Z,5.28
2022-11-26T12:23:29.244Z,5.15
2022-11-26T12:26:00.608Z,4.53
2022-11-26T12:28:29.867Z,5.10
2022-11-26T12:31:05.571Z,4.70
2022-11-26T12:33:35.918Z,5.55
2022-11-26T12:36:10.732Z,5.40
2022-11-26T12:38:41.735Z,4.57
2022-11-26T12:41:14.082Z,5.05
2022-11-26T12:43:48.142Z,5.50
2022-11-26T12:46:20.924Z,4.70
2022-11-26T12:48:56.534Z,5.00
2022-11-26T12:51:28.287Z,4.47
2022-11-26T12:54:02.612Z,5.43
2022-11-26T12:56:42.140Z,4.65
2022-11-26T12:59:15.617Z,4.82
2022-11-26T13:01:45.504Z,5.15
2022-11-26T13:04:36.756Z,5.40
2022-11-26T13:07:10.060Z,4.03
2022-11-26T13:09:48.657Z,5.57
2022-11-26T13:12:19.840Z,4.65
2022-11-26T13:14:54.371Z,5.18
2022-11-26T13:17:26.033Z,4.22
2022-11-26T13:19:56.696Z,4.25
2022-11-26T13:22:39.553Z,5.45
2022-11-26T13:25:21.219Z,5.80
2022-11-26T13:27:56.677Z,4.47
2022-11-26T13:30:27.380Z,5.03
2022-11-26T13:33:22.875Z,4.80
2022-11-26T13:36:10.538Z,4.15
2022-11-26T13:38:49.405Z,4.75
2022-11-26T13:41:23.638Z,5.32
2022-11-26T13:44:20.558Z,5.30
2022-11-26T13:46:53.991Z,5.32
2022-11-26T13:49:24.478Z,3.85
2022-11-26T13:51:57.137Z,4.32
2022-11-26T13:54:31.196Z,4.50
2022-11-26T13:57:02.442Z,5.47
2022-11-26T13:59:33.904Z,4.90
2022-11-26T14:02:26.463Z,4.22
2022-11-26T14:04:55.210Z,4.30
2022-11-26T14:07:23.709Z,4.53
2022-11-26T14:09:54.693Z,4.18
2022-11-26T14:12:26.092Z,4.28
2022-11-26T14:14:54.660Z,3.40
2022-11-26T14:17:23.848Z,3.90
2022-11-26T14:20:14.644Z,3.35
2022-11-26T14:22:42.917Z,3.92
2022-11-26T14:25:18.138Z,3.67
2022-11-26T14:27:59.110Z,4.18
2022-11-26T14:30:31.179Z,3.45
2022-11-26T14:33:08.299Z,3.13
2022-11-26T14:35:37.995Z,4.85
2022-11-26T14:38:07.792Z,3.95
2022-11-26T14:40:38.521Z,3.85
2022-11-26T14:43:16.593Z,4.45
2022-11-26T14:45:45.915Z,5.03
2022-11-26T14:48:24.693Z,5.18
2022-11-26T14:50:53.693Z,4.35
2022-11-26T14:53:22.662Z,4.55
2022-11-26T14:55:52.771Z,3.88
2022-11-26T14:58:37.063Z,4.13
2022-11-26T15:01:09.191Z,3.78
2022-11-26T15:03:37.652Z,4.80
2022-11-26T15:06:06.386Z,4.20
2022-11-26T15:08:34.683Z,3.72
2022-11-26T15:11:05.675Z,4.47
2022-11-26T15:13:35.524Z,4.10
2022-11-26T15:16:05.232Z,3.40
2022-11-26T15:18:37.172Z,4.03
2022-11-26T15:21:06.666Z,4.50
2022-11-26T15:23:37.282Z,4.07
2022-11-26T15:26:07.796Z,3.20
2022-11-26T15:28:41.361Z,3.53
2022-11-26T15:31:12.215Z,3.72
2022-11-26T15:33:41.105Z,4.07
2022-11-26T15:36:15.863Z,4.72
2022-11-26T15:39:01.096Z,3.22
2022-11-26T15:41:30.850Z,3.45
2022-11-26T15:44:00.480Z,3.60
2022-11-26T15:46:31.715Z,3.42
2022-11-26T15:49:04.276Z,3.38
2022-11-26T15:51:37.436Z,3.75
2022-11-26T15:54:06.571Z,3.90
2022-11-26T15:56:37.756Z,4.00
2022-11-26T15:59:07.730Z,3.65
2022-11-26T16:01:44.307Z,3.97
2022-11-26T16:04:36.550Z,3.55
2022-11-26T16:07:14.565Z,2.83
2022-11-26T16:09:43.599Z,3.75
2022-11-26T16:12:29.851Z,3.20
2022-11-26T16:15:12.208Z,3.83
2022-11-26T16:17:43.727Z,3.22
2022-11-26T16:20:17.795Z,3.30
2022-11-26T16:22:50.539Z,3.63
2022-11-26T16:25:23.202Z,3.75
2022-11-26T16:28:09.175Z,3.60
2022-11-26T16:30:39.507Z,3.95
2022-11-26T16:33:08.207Z,3.30
2022-11-26T16:35:45.736Z,3.78
2022-11-26T16:38:27.125Z,3.60
2022-11-26T16:41:02.298Z,4.68
2022-11-26T16:43:30.740Z,4.72
2022-11-26T16:46:00.437Z,4.53
2022-11-26T16:48:31.548Z,6.20
2022-11-26T16:51:04.201Z,7.65
2022-11-26T16:53:34.907Z,5.57
2022-11-26T16:56:03.396Z,3.67
2022-11-26T16:58:33.413Z,4.05
2022-11-26T17:01:03.114Z,3.78
2022-11-26T17:03:34.878Z,3.30
2022-11-26T17:06:04.864Z,3.03
2022-11-26T17:08:33.038Z,2.70
2022-11-26T17:11:01.276Z,3.33
2022-11-26T17:13:31.064Z,2.10
2022-11-26T17:16:01.421Z,2.83
2022-11-26T17:18:33.098Z,3.17
2022-11-26T17:21:03.809Z,2.78
2022-11-26T17:23:32.484Z,2.42
2022-11-26T17:26:01.297Z,2.58
2022-11-26T17:28:30.022Z,2.45
2022-11-26T17:30:59.349Z,2.40
2022-11-26T17:33:32.367Z,2.75
2022-11-26T17:36:04.626Z,2.60
2022-11-26T17:38:32.950Z,2.88
2022-11-26T17:41:19.617Z,3.35
2022-11-26T17:43:48.149Z,2.70
2022-11-26T17:46:18.005Z,2.60
2022-11-26T17:48:46.928Z,3.10
2022-11-26T17:51:17.387Z,2.72
2022-11-26T17:53:48.343Z,2.83
2022-11-26T17:56:18.169Z,2.28
2022-11-26T17:58:51.251Z,2.88
2022-11-26T18:01:22.098Z,2.95
2022-11-26T18:03:53.019Z,3.30
2022-11-26T18:06:28.027Z,3.45
2022-11-26T18:08:56.409Z,3.55
2022-11-26T18:11:42.413Z,3.28
2022-11-26T18:14:12.463Z,3.60
2022-11-26T18:16:41.163Z,3.15
2022-11-26T18:19:10.127Z,2.97
2022-11-26T18:21:39.857Z,3.08
2022-11-26T18:24:08.927Z,3.03
2022-11-26T18:26:37.576Z,3.60
2022-11-26T18:29:06.139Z,2.72
2022-11-26T18:31:39.535Z,2.80
2022-11-26T18:34:08.676Z,4.07
2022-11-26T18:36:37.031Z,2.90
2022-11-26T18:39:06.993Z,4.43
2022-11-26T18:41:35.255Z,3.42
2022-11-26T18:44:06.279Z,4.88
2022-11-26T18:46:41.741Z,3.78
2022-11-26T18:49:10.167Z,3.75
2022-11-26T18:51:42.253Z,4.45
2022-11-26T18:54:12.043Z,4.57
2022-11-26T18:56:40.333Z,3.97
2022-11-26T18:59:13.000Z,4.60
2022-11-26T19:01:42.213Z,4.75
2022-11-26T19:04:11.839Z,4.28
2022-11-26T19:06:43.182Z,3.75
2022-11-26T19:09:23.929Z,3.65
2022-11-26T19:11:56.225Z,4.38
2022-11-26T19:14:24.619Z,4.30
2022-11-26T19:16:56.154Z,3.33
2022-11-26T19:19:24.400Z,4.60
2022-11-26T19:21:58.036Z,3.65
2022-11-26T19:24:30.798Z,4.55
2022-11-26T19:26:59.259Z,5.25
2022-11-26T19:29:27.391Z,5.50
2022-11-26T19:32:03.265Z,5.00
2022-11-26T19:34:36.000Z,5.45
2022-11-26T19:37:04.438Z,4.72
2022-11-26T19:39:34.117Z,4.90
2022-11-26T19:42:02.344Z,4.85
2022-11-26T19:44:32.933Z,4.38
2022-11-26T19:47:01.349Z,5.03
2022-11-26T19:49:29.763Z,4.22
2022-11-26T19:51:58.050Z,5.05
2022-11-26T19:54:26.656Z,4.85
2022-11-26T19:56:58.644Z,4.45
2022-11-26T19:59:31.862Z,4.38
2022-11-26T20:02:01.946Z,4.68
2022-11-26T20:04:30.605Z,5.22
2022-11-26T20:06:59.333Z,4.38
2022-11-26T20:09:27.670Z,5.60
2022-11-26T20:12:00.357Z,5.35
2022-11-26T20:14:28.780Z,4.10
2022-11-26T20:17:00.917Z,4.22
2022-11-26T20:19:29.880Z,5.03
2022-11-26T20:21:58.307Z,5.43
2022-11-26T20:24:26.574Z,4.95
2022-11-26T20:26:55.062Z,4.70
2022-11-26T20:29:28.433Z,4.45
2022-11-26T20:31:56.920Z,4.68
2022-11-26T20:34:27.784Z,4.80
2022-11-26T20:36:56.266Z,4.35
2022-11-26T20:39:25.640Z,4.47
2022-11-26T20:41:53.990Z,4.53
2022-11-26T20:44:23.054Z,4.00
2022-11-26T20:46:52.904Z,4.65
2022-11-26T20:49:21.325Z,4.72
2022-11-26T20:51:50.297Z,4.68
2022-11-26T20:54:19.230Z,4.45
2022-11-26T20:56:47.653Z,4.47
2022-11-26T20:59:16.018Z,4.97
2022-11-26T21:01:44.524Z,4.70
2022-11-26T21:04:14.352Z,4.65
2022-11-26T21:06:43.744Z,4.40
2022-11-26T21:09:12.726Z,4.78
2022-11-26T21:11:41.521Z,4.72
2022-11-26T21:14:14.789Z,4.45
2022-11-26T21:16:45.142Z,4.53
2022-11-26T21:19:17.198Z,4.57
2022-11-26T21:21:45.697Z,4.95
2022-11-26T21:27:21.954Z,3.88
2022-11-26T21:29:50.419Z,5.53
2022-11-26T21:32:18.946Z,3.42
2022-11-26T21:34:49.041Z,4.40
2022-11-26T21:37:18.769Z,4.43
2022-11-26T21:39:47.333Z,3.80
2022-11-26T21:42:16.920Z,3.67
2022-11-26T21:44:45.407Z,4.38
2022-11-26T21:47:15.619Z,4.28
2022-11-26T21:49:44.315Z,4.75
2022-11-26T21:52:15.146Z,3.97
2022-11-26T21:54:43.543Z,4.05
2022-11-26T21:57:12.636Z,4.20
2022-11-26T21:59:41.382Z,3.78
2022-11-26T22:02:12.061Z,3.55
2022-11-26T22:04:40.680Z,3.55
2022-11-26T22:07:09.347Z,4.65
2022-11-26T22:09:39.547Z,3.92
2022-11-26T22:12:08.745Z,4.85
2022-11-26T22:14:37.178Z,4.95
2022-11-26T22:17:05.783Z,4.35
2022-11-26T22:19:34.164Z,4.55
2022-11-26T22:22:02.452Z,4.03
2022-11-26T22:24:30.799Z,4.00
2022-11-26T22:27:00.557Z,4.53
2022-11-26T22:29:29.039Z,5.85
2022-11-26T22:31:57.342Z,3.95
2022-11-26T22:34:27.849Z,3.95
2022-11-26T22:36:56.309Z,3.80
2022-11-26T22:39:24.673Z,4.85
2022-11-26T22:41:53.040Z,3.95
2022-11-26T22:44:22.861Z,3.83
2022-11-26T22:46:51.171Z,4.03
2022-11-26T22:49:19.816Z,4.20
2022-11-26T22:51:48.330Z,4.07
2022-11-26T22:54:18.152Z,3.40
2022-11-26T22:56:49.131Z,4.22
2022-11-26T22:59:18.784Z,3.70
2022-11-26T23:01:48.494Z,4.30
2022-11-26T23:04:18.066Z,3.38
2022-11-26T23:06:46.699Z,4.10
2022-11-26T23:09:15.347Z,4.03
2022-11-26T23:11:44.161Z,4.45
2022-11-26T23:14:12.583Z,3.80
2022-11-26T23:16:41.945Z,4.00
2022-11-26T23:19:12.813Z,4.13
2022-11-26T23:21:42.829Z,4.47
2022-11-26T23:24:11.230Z,4.50
2022-11-26T23:26:40.549Z,3.63
2022-11-26T23:29:09.731Z,3.88
2022-11-26T23:31:39.878Z,4.50
2022-11-26T23:34:08.879Z,3.53
2022-11-26T23:36:39.205Z,3.78
2022-11-26T23:39:08.674Z,4.28
2022-11-26T23:41:37.127Z,2.90
2022-11-26T23:44:05.439Z,3.58
2022-11-26T23:46:35.315Z,3.72
2022-11-26T23:49:04.054Z,3.13
2022-11-26T23:51:33.431Z,3.88
2022-11-26T23:54:03.312Z,3.72
2022-11-26T23:56:32.404Z,3.65
2022-11-26T23:59:02.725Z,3.63
